Time;durP1;ratioP1;P1;durP2;ratioP2;P2;SDS_P1;SDS_P2;PMS_P1;PMS_P2;Temp;Humidity;BMP_temperature;BMP_pressure;BME280_temperature;BME280_humidity;BME280_pressure;Samples;Min_cycle;Max_cycle;Signal;HPM_P1;HPM_P2
2022/12/26 00:01:59;;;;;;;;;;;;;;;5.14;100.00;98920.84;4281374;33;19957;-73
2022/12/26 00:04:26;;;;;;;;;;;;;;;5.09;100.00;98918.84;4281882;33;19958;-74
2022/12/26 00:06:58;;;;;;;;;;;;;;;4.97;100.00;98925.91;4269128;33;19975;-74
2022/12/26 00:09:24;;;;;;;;;;;;;;;5.18;100.00;98916.69;4267963;33;20366;-74
2022/12/26 00:11:50;;;;;;;;;;;;;;;5.28;100.00;98917.06;4268588;33;19949;-74
2022/12/26 00:14:17;;;;;;;;;;;;;;;5.11;100.00;98905.28;4279966;33;19945;-74
2022/12/26 00:16:44;;;;;;;;;;;;;;;5.28;100.00;98900.19;4279343;33;19945;-74
2022/12/26 00:19:10;;;;;;;;;;;;;;;5.17;100.00;98908.91;4277196;33;19992;-73
2022/12/26 00:21:36;;;;;;;;;;;;;;;5.21;100.00;98905.59;4280460;33;19961;-74
2022/12/26 00:24:03;;;;;;;;;;;;;;;5.08;100.00;98890.50;4273082;33;19945;-74
2022/12/26 00:26:30;;;;;;;;;;;;;;;5.18;100.00;98895.34;4265321;33;19946;-74
2022/12/26 00:28:57;;;;;;;;;;;;;;;5.05;100.00;98890.13;4248878;33;19949;-72
2022/12/26 00:31:24;;;;;;;;;;;;;;;5.15;100.00;98884.28;4251060;33;19956;-72
2022/12/26 00:33:51;;;;;;;;;;;;;;;4.94;100.00;98874.81;4250491;33;19970;-73
2022/12/26 00:36:24;;;;;;;;;;;;;;;4.93;100.00;98882.00;4251403;33;19949;-73
2022/12/26 00:38:51;;;;;;;;;;;;;;;5.04;100.00;98877.81;4251135;33;19968;-73
2022/12/26 00:41:18;;;;;;;;;;;;;;;5.16;100.00;98864.59;4249480;33;19942;-73
2022/12/26 00:43:45;;;;;;;;;;;;;;;5.11;100.00;98843.09;4250684;33;19954;-73
2022/12/26 00:46:12;;;;;;;;;;;;;;;5.12;100.00;98853.50;4255620;33;20015;-73
2022/12/26 00:48:41;;;;;;;;;;;;;;;5.23;100.00;98835.97;4258742;33;19960;-73
2022/12/26 00:51:07;;;;;;;;;;;;;;;5.06;100.00;98823.19;4250120;33;19950;-73
2022/12/26 00:53:34;;;;;;;;;;;;;;;4.96;100.00;98822.84;4236507;33;20034;-73
2022/12/26 00:56:00;;;;;;;;;;;;;;;5.25;100.00;98817.91;4209841;34;19943;-74
2022/12/26 00:58:26;;;;;;;;;;;;;;;5.30;100.00;98812.72;4223032;34;19972;-74
2022/12/26 03:15:19;;;;;;;;;;;;;;;5.15;100.00;98618.19;4324425;33;20303;-73
2022/12/26 03:17:50;;;;;;;;;;;;;;;5.31;100.00;98616.78;4326217;33;19957;-73
2022/12/26 03:20:22;;;;;;;;;;;;;;;5.23;100.00;98609.06;4326144;33;19949;-73
2022/12/26 03:22:53;;;;;;;;;;;;;;;5.30;100.00;98604.47;4326590;33;20001;-72
2022/12/26 03:28:14;;;;;;;;;;;;;;;5.44;100.00;98615.78;4294975;33;20052;-73
2022/12/26 03:30:49;;;;;;;;;;;;;;;5.50;100.00;98592.72;4294584;33;19948;-72
2022/12/26 03:36:12;;;;;;;;;;;;;;;5.49;100.00;98588.41;4264976;33;19946;-72
2022/12/26 03:38:54;;;;;;;;;;;;;;;5.56;100.00;98589.13;4265283;33;19961;-72
2022/12/26 04:19:24;;;;;;;;;;;;;;;5.60;100.00;98544.87;4310205;33;19962;-73
2022/12/26 04:44:22;;;;;;;;;;;;;;;6.10;100.00;98527.69;4294076;33;19944;-73
2022/12/26 04:46:48;;;;;;;;;;;;;;;6.10;100.00;98528.47;4293883;33;19945;-75
2022/12/26 04:52:02;;;;;;;;;;;;;;;5.85;100.00;98530.53;4294691;33;19960;-72
2022/12/26 04:54:28;;;;;;;;;;;;;;;5.83;100.00;98534.25;4310150;33;19949;-72
2022/12/26 04:56:54;;;;;;;;;;;;;;;6.05;100.00;98541.75;4309547;33;20248;-72
2022/12/26 04:59:21;;;;;;;;;;;;;;;6.08;100.00;98545.78;4310589;33;19945;-73
2022/12/26 05:10:16;;;;;;;;;;;;;;;5.97;100.00;98497.47;4309689;33;20010;-73
2022/12/26 05:12:42;;;;;;;;;;;;;;;5.94;100.00;98510.44;4279397;33;20063;-73
2022/12/26 05:15:09;;;;;;;;;;;;;;;6.13;100.00;98506.63;4290622;33;19948;-73
2022/12/26 05:28:42;;;;;;;;;;;;;;;5.96;100.00;98495.81;4291922;33;20004;-73
2022/12/26 05:31:09;;;;;;;;;;;;;;;5.87;100.00;98485.69;4266019;33;19961;-73
2022/12/26 05:36:22;;;;;;;;;;;;;;;6.00;100.00;98470.28;4265878;33;19948;-73
2022/12/26 05:38:48;;;;;;;;;;;;;;;6.02;100.00;98470.03;4267041;33;19941;-73
2022/12/26 05:41:14;;;;;;;;;;;;;;;6.02;100.00;98456.69;4268087;33;19953;-73
2022/12/26 05:43:41;;;;;;;;;;;;;;;5.89;100.00;98456.88;4280626;33;20365;-73
2022/12/26 05:46:07;;;;;;;;;;;;;;;5.98;100.00;98466.19;4296359;33;20057;-72
2022/12/26 05:48:33;;;;;;;;;;;;;;;5.95;100.00;98480.81;4295413;33;20000;-73
2022/12/26 05:51:00;;;;;;;;;;;;;;;6.11;100.00;98482.00;4295090;33;20286;-72
2022/12/26 05:53:27;;;;;;;;;;;;;;;6.17;100.00;98481.06;4296494;33;20361;-73
2022/12/26 05:55:53;;;;;;;;;;;;;;;6.17;100.00;98475.72;4267832;33;19955;-75
2022/12/26 05:58:20;;;;;;;;;;;;;;;6.41;100.00;98493.59;4267911;33;19960;-74
2022/12/26 06:00:46;;;;;;;;;;;;;;;6.25;100.00;98476.41;4265606;33;20094;-74
2022/12/26 06:03:19;;;;;;;;;;;;;;;6.47;100.00;98461.34;4294951;33;19970;-74
2022/12/26 06:05:45;;;;;;;;;;;;;;;6.80;100.00;98467.09;4267210;33;20004;-74
2022/12/26 06:08:11;;;;;;;;;;;;;;;6.41;100.00;98470.31;4267527;33;20143;-74
2022/12/26 06:10:38;;;;;;;;;;;;;;;6.45;100.00;98455.44;4267309;33;19945;-73
2022/12/26 06:13:04;;;;;;;;;;;;;;;6.81;100.00;98468.69;4264243;33;20315;-74
2022/12/26 06:15:30;;;;;;;;;;;;;;;6.65;100.00;98471.09;4238939;33;19982;-74
2022/12/26 06:17:56;;;;;;;;;;;;;;;6.67;100.00;98454.78;4238768;33;20397;-74
2022/12/26 06:20:22;;;;;;;;;;;;;;;6.95;100.00;98458.50;4238710;33;19963;-74
2022/12/26 06:22:48;;;;;;;;;;;;;;;6.79;100.00;98449.38;4238780;33;20314;-73
2022/12/26 06:25:15;;;;;;;;;;;;;;;7.09;100.00;98459.84;4237239;33;20069;-74
2022/12/26 06:27:42;;;;;;;;;;;;;;;6.93;100.00;98455.28;4249910;33;19968;-74
2022/12/26 06:30:09;;;;;;;;;;;;;;;7.14;100.00;98457.25;4238650;33;19972;-73
2022/12/26 06:32:35;;;;;;;;;;;;;;;7.11;100.00;98456.94;4236425;33;20413;-73
2022/12/26 06:35:01;;;;;;;;;;;;;;;7.07;100.00;98462.75;4224462;34;20002;-74
2022/12/26 06:37:27;;;;;;;;;;;;;;;7.22;100.00;98454.16;4232701;33;19934;-74
2022/12/26 06:39:54;;;;;;;;;;;;;;;7.43;100.00;98465.22;4238656;33;19958;-74
2022/12/26 06:42:20;;;;;;;;;;;;;;;7.04;100.00;98447.19;4237625;33;19968;-74
2022/12/26 06:44:46;;;;;;;;;;;;;;;7.19;100.00;98451.97;4238777;33;19953;-74
2022/12/26 06:47:13;;;;;;;;;;;;;;;7.33;100.00;98444.44;4238710;33;19951;-73
2022/12/26 06:49:39;;;;;;;;;;;;;;;7.36;100.00;98441.28;4220757;34;19951;-74
2022/12/26 06:52:06;;;;;;;;;;;;;;;7.56;100.00;98454.22;4226285;33;19993;-73
2022/12/26 06:54:32;;;;;;;;;;;;;;;7.64;100.00;98448.44;4249399;33;20015;-72
2022/12/26 06:56:58;;;;;;;;;;;;;;;7.60;100.00;98449.16;4252906;33;20386;-73
2022/12/26 06:59:25;;;;;;;;;;;;;;;7.62;100.00;98447.84;4238350;33;19950;-73
2022/12/26 07:01:51;;;;;;;;;;;;;;;7.68;100.00;98445.28;4246463;33;19958;-75
2022/12/26 07:04:17;;;;;;;;;;;;;;;7.83;100.00;98453.50;4252032;33;19976;-75
2022/12/26 07:06:43;;;;;;;;;;;;;;;7.79;100.00;98452.41;4253158;33;19958;-74
2022/12/26 07:09:15;;;;;;;;;;;;;;;7.90;100.00;98464.88;4260897;33;19952;-74
2022/12/26 07:11:43;;;;;;;;;;;;;;;7.89;100.00;98463.25;4265075;33;19954;-75
2022/12/26 07:14:09;;;;;;;;;;;;;;;8.12;100.00;98472.16;4265046;33;19945;-74
2022/12/26 07:16:36;;;;;;;;;;;;;;;8.13;100.00;98463.06;4266613;33;19968;-75
2022/12/26 07:19:03;;;;;;;;;;;;;;;8.03;100.00;98465.62;4238214;33;19947;-75
2022/12/26 07:21:29;;;;;;;;;;;;;;;8.03;100.00;98461.06;4208606;34;19947;-76
2022/12/26 07:23:56;;;;;;;;;;;;;;;8.19;100.00;98472.78;4208949;34;20266;-75
2022/12/26 07:26:23;;;;;;;;;;;;;;;8.08;100.00;98465.69;4210566;34;19947;-75
2022/12/26 07:28:53;;;;;;;;;;;;;;;8.10;100.00;98460.87;4224175;34;19963;-75
2022/12/26 07:31:19;;;;;;;;;;;;;;;8.01;100.00;98457.81;4224097;34;19961;-75
2022/12/26 07:33:47;;;;;;;;;;;;;;;8.12;100.00;98451.53;4241683;33;19950;-75
2022/12/26 07:36:13;;;;;;;;;;;;;;;8.28;100.00;98459.75;4223535;33;19942;-75
2022/12/26 07:38:40;;;;;;;;;;;;;;;8.12;100.00;98462.25;4238157;33;19962;-73
2022/12/26 07:43:51;;;;;;;;;;;;;;;8.46;100.00;98466.75;4222236;34;20014;-78
2022/12/26 07:46:20;;;;;;;;;;;;;;;8.54;100.00;98474.34;4219821;34;20006;-77
2022/12/26 07:48:46;;;;;;;;;;;;;;;8.23;100.00;98483.84;4222489;34;20077;-78
2022/12/26 07:51:13;;;;;;;;;;;;;;;8.26;100.00;98484.16;4249790;33;19956;-80
2022/12/26 07:53:41;;;;;;;;;;;;;;;8.54;100.00;98475.16;4235538;33;19958;-77
2022/12/26 07:56:07;;;;;;;;;;;;;;;8.49;100.00;98476.97;4237420;33;20006;-79
2022/12/26 07:58:33;;;;;;;;;;;;;;;8.54;100.00;98458.25;4235958;33;19942;-78
2022/12/26 08:01:00;;;;;;;;;;;;;;;8.47;100.00;98473.72;4237526;33;19990;-77
2022/12/26 08:03:27;;;;;;;;;;;;;;;8.93;100.00;98460.81;4237637;33;19946;-77
2022/12/26 08:05:53;;;;;;;;;;;;;;;8.76;100.00;98458.25;4237459;33;19942;-78
2022/12/26 08:08:19;;;;;;;;;;;;;;;8.67;100.00;98447.13;4253875;33;19944;-77
2022/12/26 08:10:46;;;;;;;;;;;;;;;8.97;100.00;98439.66;4243637;33;21364;-76
2022/12/26 08:13:12;;;;;;;;;;;;;;;8.58;100.00;98464.72;4261757;33;20021;-77
2022/12/26 08:15:39;;;;;;;;;;;;;;;8.67;100.00;98473.97;4261061;33;20300;-78
2022/12/26 08:18:06;;;;;;;;;;;;;;;8.91;100.00;98484.44;4234479;33;20337;-77
2022/12/26 08:20:32;;;;;;;;;;;;;;;8.71;100.00;98474.25;4235224;33;19990;-77
2022/12/26 08:22:58;;;;;;;;;;;;;;;9.14;100.00;98483.31;4235279;33;19959;-78
2022/12/26 08:25:25;;;;;;;;;;;;;;;8.79;100.00;98483.75;4248196;33;19964;-78
2022/12/26 08:27:51;;;;;;;;;;;;;;;9.23;100.00;98468.37;4251178;33;19954;-77
2022/12/26 08:30:17;;;;;;;;;;;;;;;9.03;100.00;98477.03;4250604;33;19945;-77
2022/12/26 08:32:45;;;;;;;;;;;;;;;8.95;100.00;98458.72;4249028;33;20005;-76
2022/12/26 08:35:11;;;;;;;;;;;;;;;9.02;100.00;98464.69;4248368;33;19952;-77
2022/12/26 08:37:37;;;;;;;;;;;;;;;8.99;100.00;98465.19;4236249;33;19947;-78
2022/12/26 08:40:07;;;;;;;;;;;;;;;9.14;100.00;98455.66;4250797;33;20311;-78
2022/12/26 08:42:34;;;;;;;;;;;;;;;9.18;100.00;98459.47;4250847;33;19942;-78
2022/12/26 08:45:00;;;;;;;;;;;;;;;9.34;100.00;98461.22;4251695;33;20350;-76
2022/12/26 08:47:26;;;;;;;;;;;;;;;9.24;100.00;98471.88;4249402;33;19943;-78
2022/12/26 08:49:53;;;;;;;;;;;;;;;9.06;100.00;98471.16;4245129;33;19954;-80
2022/12/26 08:52:19;;;;;;;;;;;;;;;9.16;100.00;98472.31;4251909;33;19958;-77
2022/12/26 08:54:46;;;;;;;;;;;;;;;9.30;100.00;98470.84;4253512;33;19985;-79
2022/12/26 08:57:12;;;;;;;;;;;;;;;9.28;100.00;98475.66;4264865;33;19946;-79
2022/12/26 08:59:38;;;;;;;;;;;;;;;9.19;100.00;98456.53;4262442;33;19963;-79
2022/12/26 09:02:05;;;;;;;;;;;;;;;9.37;100.00;98470.66;4249027;33;19973;-81
2022/12/26 09:04:31;;;;;;;;;;;;;;;9.04;100.00;98454.47;4249524;33;20339;-80
2022/12/26 09:06:57;;;;;;;;;;;;;;;9.38;100.00;98465.03;4247932;33;19973;-80
2022/12/26 09:09:24;;;;;;;;;;;;;;;9.12;100.00;98473.91;4236923;33;19962;-80
2022/12/26 09:11:50;;;;;;;;;;;;;;;9.34;100.00;98466.59;4226744;33;20017;-79
2022/12/26 09:14:16;;;;;;;;;;;;;;;9.36;100.00;98480.56;4236048;33;19961;-79
2022/12/26 09:16:45;;;;;;;;;;;;;;;9.20;100.00;98470.75;4230126;33;19938;-79
2022/12/26 09:19:12;;;;;;;;;;;;;;;9.19;100.00;98477.19;4234950;33;19974;-80
2022/12/26 09:21:38;;;;;;;;;;;;;;;9.43;100.00;98486.56;4258549;33;19962;-80
2022/12/26 09:24:06;;;;;;;;;;;;;;;9.36;100.00;98475.19;4260022;33;19976;-80
2022/12/26 09:26:32;;;;;;;;;;;;;;;9.39;100.00;98479.25;4263202;33;20016;-79
2022/12/26 09:28:59;;;;;;;;;;;;;;;9.47;100.00;98473.41;4270851;33;19959;-79
2022/12/26 09:31:27;;;;;;;;;;;;;;;9.39;100.00;98476.56;4266665;33;19941;-77
2022/12/26 09:33:53;;;;;;;;;;;;;;;9.34;100.00;98469.28;4248217;33;19962;-76
2022/12/26 09:36:27;;;;;;;;;;;;;;;9.30;100.00;98476.22;4245699;33;20874;-76
2022/12/26 09:38:55;;;;;;;;;;;;;;;9.11;100.00;98477.66;4252104;33;20013;-78
2022/12/26 09:41:40;;;;;;;;;;;;;;;9.17;100.00;98466.69;4266341;33;20399;-76
2022/12/26 09:44:06;;;;;;;;;;;;;;;9.44;100.00;98468.53;4245873;33;19972;-77
2022/12/26 09:46:38;;;;;;;;;;;;;;;9.41;100.00;98471.75;4247330;33;19978;-77
2022/12/26 09:49:30;;;;;;;;;;;;;;;9.56;100.00;98473.78;4258456;33;19957;-76
2022/12/26 09:52:02;;;;;;;;;;;;;;;9.74;100.00;98465.28;4219361;34;20804;-78
2022/12/26 09:54:39;;;;;;;;;;;;;;;9.79;100.00;98467.22;4221696;34;20057;-77
2022/12/26 09:57:11;;;;;;;;;;;;;;;9.61;100.00;98455.78;4220535;34;19955;-75
2022/12/26 09:59:44;;;;;;;;;;;;;;;9.48;100.00;98460.78;4221544;34;19994;-76
2022/12/26 10:02:21;;;;;;;;;;;;;;;9.48;100.00;98460.78;4222196;34;19955;-77
2022/12/26 10:04:48;;;;;;;;;;;;;;;9.69;100.00;98459.88;4222022;33;19966;-77
2022/12/26 10:07:22;;;;;;;;;;;;;;;9.75;100.00;98456.16;4232917;33;19950;-78
2022/12/26 10:09:58;;;;;;;;;;;;;;;9.54;100.00;98462.44;4230409;33;20018;-77
2022/12/26 10:12:36;;;;;;;;;;;;;;;9.90;100.00;98457.34;4234747;33;19958;-78
2022/12/26 10:15:05;;;;;;;;;;;;;;;9.79;100.00;98468.00;4203525;34;20015;-75
2022/12/26 10:17:50;;;;;;;;;;;;;;;9.88;100.00;98451.41;4208714;34;19981;-74
2022/12/26 10:20:26;;;;;;;;;;;;;;;9.76;100.00;98462.34;4206125;34;19943;-75
2022/12/26 10:23:08;;;;;;;;;;;;;;;9.92;100.00;98465.94;4196041;34;20145;-76
2022/12/26 10:25:38;;;;;;;;;;;;;;;9.79;100.00;98453.75;4209391;34;19954;-76
2022/12/26 10:28:08;;;;;;;;;;;;;;;9.97;100.00;98447.16;4210824;34;19954;-75
2022/12/26 10:30:38;;;;;;;;;;;;;;;9.84;100.00;98451.09;4209302;34;20100;-76
2022/12/26 10:33:10;;;;;;;;;;;;;;;10.24;100.00;98454.28;4209618;34;19955;-76
2022/12/26 10:35:39;;;;;;;;;;;;;;;10.13;100.00;98439.97;4208635;34;19943;-77
2022/12/26 10:38:25;;;;;;;;;;;;;;;10.15;100.00;98438.66;4215591;33;19938;-76
2022/12/26 10:40:53;;;;;;;;;;;;;;;10.34;100.00;98435.56;4222478;33;20380;-76
2022/12/26 10:43:19;;;;;;;;;;;;;;;10.39;100.00;98423.97;4223480;33;19965;-77
2022/12/26 10:45:51;;;;;;;;;;;;;;;10.35;100.00;98442.53;4221771;34;19950;-75
2022/12/26 10:48:17;;;;;;;;;;;;;;;10.63;100.00;98437.81;4237547;33;19969;-76
2022/12/26 10:50:46;;;;;;;;;;;;;;;10.57;100.00;98436.97;4242851;33;19942;-76
2022/12/26 10:53:13;;;;;;;;;;;;;;;10.35;100.00;98431.78;4240761;33;19959;-75
2022/12/26 10:55:40;;;;;;;;;;;;;;;10.26;100.00;98427.94;4251072;33;20053;-76
2022/12/26 10:58:16;;;;;;;;;;;;;;;10.51;100.00;98430.78;4247750;33;19950;-77
2022/12/26 11:00:42;;;;;;;;;;;;;;;10.55;100.00;98431.06;4250193;33;20036;-78
2022/12/26 11:03:15;;;;;;;;;;;;;;;10.71;100.00;98418.44;4250100;33;19950;-76
2022/12/26 11:05:44;;;;;;;;;;;;;;;10.59;100.00;98415.19;4248804;33;20029;-75
2022/12/26 11:08:16;;;;;;;;;;;;;;;10.87;100.00;98433.56;4248305;33;19960;-75
2022/12/26 11:10:46;;;;;;;;;;;;;;;10.89;100.00;98426.00;4251116;33;20011;-75
2022/12/26 11:13:20;;;;;;;;;;;;;;;10.82;100.00;98419.28;4249884;33;19999;-76
2022/12/26 11:15:48;;;;;;;;;;;;;;;10.90;100.00;98427.66;4261926;33;19995;-75
2022/12/26 11:18:33;;;;;;;;;;;;;;;10.75;100.00;98424.91;4258532;33;19960;-76
2022/12/26 11:21:29;;;;;;;;;;;;;;;10.79;100.00;98419.81;4258871;33;20281;-75
2022/12/26 11:26:39;;;;;;;;;;;;;;;10.80;100.00;98422.25;4259443;33;19957;-75
2022/12/26 11:29:11;;;;;;;;;;;;;;;10.96;100.00;98424.94;4266920;33;19965;-75
2022/12/26 11:31:39;;;;;;;;;;;;;;;11.11;100.00;98427.69;4270838;33;20397;-76
2022/12/26 11:34:09;;;;;;;;;;;;;;;10.88;100.00;98412.81;4270441;33;19963;-76
2022/12/26 11:36:39;;;;;;;;;;;;;;;10.96;100.00;98408.78;4270262;33;19952;-75
2022/12/26 11:39:15;;;;;;;;;;;;;;;10.81;100.00;98415.78;4268921;33;19942;-74
2022/12/26 11:41:42;;;;;;;;;;;;;;;10.93;100.00;98404.78;4271294;33;19956;-76
2022/12/26 11:44:09;;;;;;;;;;;;;;;11.17;100.00;98402.38;4263194;33;19977;-75
2022/12/26 11:46:35;;;;;;;;;;;;;;;11.21;100.00;98406.13;4262176;33;19946;-75
2022/12/26 11:49:02;;;;;;;;;;;;;;;11.45;100.00;98405.59;4261471;33;20801;-75
2022/12/26 11:51:37;;;;;;;;;;;;;;;11.16;100.00;98392.66;4263307;33;20800;-76
2022/12/26 11:54:21;;;;;;;;;;;;;;;11.00;100.00;98415.28;4255858;33;20492;-75
2022/12/26 11:56:58;;;;;;;;;;;;;;;11.39;100.00;98395.88;4256908;33;20001;-76
2022/12/26 11:59:24;;;;;;;;;;;;;;;11.60;100.00;98400.19;4259891;33;19981;-76
2022/12/26 12:02:09;;;;;;;;;;;;;;;11.82;100.00;98385.56;4426490;28;20286;-74
2022/12/26 12:04:35;;;;;;;;;;;;;;;11.54;100.00;98403.97;4270903;33;19969;-75
2022/12/26 12:07:08;;;;;;;;;;;;;;;11.64;100.00;98398.53;4279657;33;19964;-76
2022/12/26 12:09:34;;;;;;;;;;;;;;;11.65;100.00;98410.16;4278298;33;19954;-76
2022/12/26 12:12:30;;;;;;;;;;;;;;;11.87;100.00;98412.56;4278369;33;19953;-75
2022/12/26 12:15:12;;;;;;;;;;;;;;;11.94;100.00;98423.87;4224831;33;19970;-76
2022/12/26 12:17:39;;;;;;;;;;;;;;;11.85;100.00;98420.09;4229395;33;19962;-75
2022/12/26 12:20:08;;;;;;;;;;;;;;;11.70;100.00;98423.63;4215606;33;20131;-74
2022/12/26 12:22:53;;;;;;;;;;;;;;;11.94;100.00;98412.28;4220076;33;19974;-75
2022/12/26 12:25:40;;;;;;;;;;;;;;;12.02;100.00;98435.22;4210630;33;19998;-76
2022/12/26 12:28:26;;;;;;;;;;;;;;;11.97;100.00;98415.25;4218080;33;20333;-74
2022/12/26 12:31:11;;;;;;;;;;;;;;;12.11;100.00;98411.97;4220701;33;19959;-75
2022/12/26 12:33:42;;;;;;;;;;;;;;;12.04;100.00;98404.16;4206259;34;19959;-75
2022/12/26 12:36:10;;;;;;;;;;;;;;;11.95;100.00;98412.03;4173462;34;19987;-76
2022/12/26 12:38:42;;;;;;;;;;;;;;;12.25;100.00;98399.50;4172493;34;20065;-76
2022/12/26 12:41:11;;;;;;;;;;;;;;;12.03;100.00;98393.63;4173115;34;20371;-74
2022/12/26 12:43:55;;;;;;;;;;;;;;;11.83;100.00;98427.66;4178042;34;19998;-77
2022/12/26 12:46:21;;;;;;;;;;;;;;;11.64;100.00;98420.12;4170663;34;20338;-76
2022/12/26 12:49:04;;;;;;;;;;;;;;;11.69;100.00;98415.81;4162900;34;20420;-78
2022/12/26 12:51:44;;;;;;;;;;;;;;;11.77;100.00;98412.56;4166191;34;19952;-74
2022/12/26 12:54:13;;;;;;;;;;;;;;;11.84;100.00;98418.50;4168634;34;20359;-76
2022/12/26 12:56:55;;;;;;;;;;;;;;;11.61;100.00;98417.97;4193777;34;19973;-73
2022/12/26 12:59:27;;;;;;;;;;;;;;;11.53;100.00;98423.91;4207924;34;20334;-73
2022/12/26 13:01:56;;;;;;;;;;;;;;;11.51;100.00;98420.69;4205568;34;20360;-73
2022/12/26 13:06:58;;;;;;;;;;;;;;;11.80;100.00;98399.31;4207138;34;20410;-74
2022/12/26 13:09:29;;;;;;;;;;;;;;;11.56;100.00;98388.31;4217514;34;19960;-74
2022/12/26 13:11:59;;;;;;;;;;;;;;;11.44;100.00;98383.22;4236001;33;19942;-74
2022/12/26 13:14:28;;;;;;;;;;;;;;;11.57;100.00;98387.25;4258912;33;19956;-73
2022/12/26 13:16:57;;;;;;;;;;;;;;;11.44;100.00;98377.03;4261860;33;19953;-73
2022/12/26 13:19:25;;;;;;;;;;;;;;;11.39;100.00;98390.50;4262212;33;19961;-74
2022/12/26 13:21:53;;;;;;;;;;;;;;;11.64;100.00;98395.06;4258943;33;19953;-75
2022/12/26 13:24:27;;;;;;;;;;;;;;;11.37;100.00;98392.66;4260636;33;19942;-73
2022/12/26 13:26:53;;;;;;;;;;;;;;;11.18;100.00;98401.25;4259058;33;20085;-74
2022/12/26 13:29:38;;;;;;;;;;;;;;;11.44;100.00;98399.41;4256999;33;19961;-74
2022/12/26 13:32:14;;;;;;;;;;;;;;;11.36;100.00;98399.13;4258606;33;19981;-74
2022/12/26 13:34:41;;;;;;;;;;;;;;;11.41;100.00;98409.91;4258725;33;19945;-74
2022/12/26 13:37:28;;;;;;;;;;;;;;;11.20;100.00;98396.44;4263661;33;19958;-74
2022/12/26 13:39:54;;;;;;;;;;;;;;;10.93;100.00;98398.56;4259482;33;19971;-74
2022/12/26 13:45:32;;;;;;;;;;;;;;;11.01;100.00;98384.56;4256157;33;20001;-75
2022/12/26 13:47:58;;;;;;;;;;;;;;;10.87;100.00;98387.78;4257337;33;19976;-75
2022/12/26 13:50:43;;;;;;;;;;;;;;;11.01;100.00;98389.94;4263565;33;19946;-75
2022/12/26 13:53:25;;;;;;;;;;;;;;;10.98;100.00;98393.19;4262271;33;19979;-75
2022/12/26 13:55:52;;;;;;;;;;;;;;;10.94;100.00;98378.63;4252822;33;19954;-76
2022/12/26 13:58:24;;;;;;;;;;;;;;;10.87;100.00;98390.47;4251594;33;20148;-75
2022/12/26 14:00:54;;;;;;;;;;;;;;;10.84;100.00;98399.09;4255205;33;20155;-75
2022/12/26 14:03:30;;;;;;;;;;;;;;;10.63;100.00;98379.38;4273294;33;20060;-74
2022/12/26 14:06:12;;;;;;;;;;;;;;;10.78;100.00;98408.22;4286599;33;19945;-75
2022/12/26 14:08:57;;;;;;;;;;;;;;;10.90;100.00;98414.19;4286633;33;19989;-75
2022/12/26 14:11:23;;;;;;;;;;;;;;;10.84;100.00;98412.53;4283830;33;20018;-75
2022/12/26 14:13:49;;;;;;;;;;;;;;;10.84;100.00;98401.78;4257582;33;19985;-75
2022/12/26 14:16:23;;;;;;;;;;;;;;;10.78;100.00;98408.22;4240823;33;20014;-75
2022/12/26 14:19:04;;;;;;;;;;;;;;;10.74;100.00;98407.16;4243726;33;20467;-75
2022/12/26 14:21:37;;;;;;;;;;;;;;;10.76;100.00;98415.75;4243075;33;20085;-75
2022/12/26 14:24:12;;;;;;;;;;;;;;;10.60;100.00;98408.72;4240777;33;19949;-75
2022/12/26 14:27:15;;;;;;;;;;;;;;;10.80;100.00;98406.09;4238871;33;19946;-74
2022/12/26 14:29:47;;;;;;;;;;;;;;;10.58;100.00;98416.25;4195498;34;20050;-74
2022/12/26 14:32:32;;;;;;;;;;;;;;;10.49;100.00;98422.13;4195834;34;20343;-76
2022/12/26 14:35:04;;;;;;;;;;;;;;;10.68;100.00;98418.97;4195517;34;19986;-75
2022/12/26 14:37:48;;;;;;;;;;;;;;;10.67;100.00;98414.66;4196664;34;19959;-75
2022/12/26 14:40:24;;;;;;;;;;;;;;;10.39;100.00;98422.13;4208917;34;19939;-74
2022/12/26 14:43:11;;;;;;;;;;;;;;;10.52;100.00;98410.84;4208692;34;19953;-74
2022/12/26 14:45:41;;;;;;;;;;;;;;;10.92;100.00;98421.19;4209038;34;20322;-73
2022/12/26 14:48:16;;;;;;;;;;;;;;;10.73;100.00;98410.91;4246782;33;19954;-73
2022/12/26 14:50:44;;;;;;;;;;;;;;;10.66;100.00;98410.38;4248440;33;20280;-74
2022/12/26 14:53:19;;;;;;;;;;;;;;;10.83;100.00;98424.41;4250518;33;19976;-73
2022/12/26 14:55:48;;;;;;;;;;;;;;;10.84;100.00;98409.06;4251561;33;19968;-74
2022/12/26 14:58:33;;;;;;;;;;;;;;;10.48;100.00;98415.16;4249755;33;19942;-74
2022/12/26 15:01:08;;;;;;;;;;;;;;;10.72;100.00;98406.59;4277816;33;19967;-74
2022/12/26 15:03:42;;;;;;;;;;;;;;;10.57;100.00;98401.19;4294370;33;20003;-74
2022/12/26 15:06:17;;;;;;;;;;;;;;;10.27;100.00;98391.88;4296726;33;20003;-74
2022/12/26 15:08:52;;;;;;;;;;;;;;;10.66;100.00;98395.00;4298476;33;19951;-74
2022/12/26 15:11:29;;;;;;;;;;;;;;;10.35;100.00;98405.69;4298441;33;20339;-73
2022/12/26 15:14:01;;;;;;;;;;;;;;;10.57;100.00;98396.59;4296514;33;20266;-73
2022/12/26 15:16:33;;;;;;;;;;;;;;;10.26;100.00;98398.34;4297028;33;19970;-74
2022/12/26 15:19:17;;;;;;;;;;;;;;;10.33;100.00;98396.25;4297781;33;20006;-74
2022/12/26 15:21:50;;;;;;;;;;;;;;;10.57;100.00;98390.41;4297364;33;20735;-74
2022/12/26 15:24:35;;;;;;;;;;;;;;;10.39;100.00;98389.81;4298290;33;19960;-74
2022/12/26 15:27:04;;;;;;;;;;;;;;;10.69;100.00;98394.47;4266062;33;19942;-74
2022/12/26 15:29:33;;;;;;;;;;;;;;;10.29;100.00;98395.94;4266966;33;19938;-74
2022/12/26 15:32:17;;;;;;;;;;;;;;;10.64;100.00;98396.34;4267373;33;19945;-73
2022/12/26 15:34:48;;;;;;;;;;;;;;;10.66;100.00;98386.13;4252026;33;20054;-74
2022/12/26 15:37:22;;;;;;;;;;;;;;;10.64;100.00;98388.25;4252957;33;19945;-74
2022/12/26 15:40:09;;;;;;;;;;;;;;;10.60;100.00;98395.28;4253085;33;20322;-73
2022/12/26 15:42:49;;;;;;;;;;;;;;;10.63;100.00;98394.75;4222587;34;19958;-74
2022/12/26 15:45:15;;;;;;;;;;;;;;;10.33;100.00;98396.25;4223943;34;19962;-74
2022/12/26 15:48:01;;;;;;;;;;;;;;;10.13;100.00;98392.37;4224500;34;19953;-74
2022/12/26 15:50:30;;;;;;;;;;;;;;;10.41;100.00;98393.03;4222557;34;19951;-74
2022/12/26 15:53:14;;;;;;;;;;;;;;;10.62;100.00;98393.91;4223924;34;19943;-74
2022/12/26 15:55:59;;;;;;;;;;;;;;;10.59;100.00;98409.78;4224210;34;19955;-74
2022/12/26 15:58:32;;;;;;;;;;;;;;;10.31;100.00;98398.38;4241563;33;19986;-73
2022/12/26 16:00:58;;;;;;;;;;;;;;;10.20;100.00;98402.91;4252455;33;19942;-74
2022/12/26 16:03:33;;;;;;;;;;;;;;;10.34;100.00;98405.97;4251199;33;20378;-74
2022/12/26 16:06:17;;;;;;;;;;;;;;;10.31;100.00;98415.31;4249099;33;19963;-74
2022/12/26 16:08:53;;;;;;;;;;;;;;;10.23;100.00;98423.06;4252600;33;19942;-74
2022/12/26 16:11:20;;;;;;;;;;;;;;;10.16;100.00;98426.84;4251918;33;19950;-74
2022/12/26 16:13:52;;;;;;;;;;;;;;;10.25;100.00;98421.75;4268847;33;19938;-74
2022/12/26 16:16:32;;;;;;;;;;;;;;;10.38;100.00;98412.41;4282883;33;19945;-74
2022/12/26 16:19:14;;;;;;;;;;;;;;;10.06;100.00;98424.06;4281575;33;20075;-73
2022/12/26 16:24:26;;;;;;;;;;;;;;;10.24;100.00;98413.94;4282651;33;20267;-73
2022/12/26 16:26:52;;;;;;;;;;;;;;;9.91;100.00;98402.50;4281873;33;20304;-74
2022/12/26 16:29:19;;;;;;;;;;;;;;;10.15;100.00;98409.06;4282125;33;19949;-74
2022/12/26 16:31:46;;;;;;;;;;;;;;;10.18;100.00;98405.06;4282808;33;19949;-74
2022/12/26 16:34:14;;;;;;;;;;;;;;;9.93;100.00;98413.78;4294019;33;19960;-74
2022/12/26 16:36:41;;;;;;;;;;;;;;;10.10;100.00;98403.66;4296971;33;20321;-74
2022/12/26 16:39:09;;;;;;;;;;;;;;;10.05;100.00;98400.97;4293821;33;19949;-74
2022/12/26 16:41:39;;;;;;;;;;;;;;;10.16;100.00;98413.38;4280543;33;20013;-74
2022/12/26 16:44:26;;;;;;;;;;;;;;;10.35;100.00;98404.88;4280376;33;19937;-73
2022/12/26 16:46:53;;;;;;;;;;;;;;;10.17;100.00;98412.28;4279684;33;19963;-74
2022/12/26 16:49:20;;;;;;;;;;;;;;;10.24;100.00;98419.31;4280065;33;19953;-74
2022/12/26 16:51:48;;;;;;;;;;;;;;;10.17;100.00;98420.38;4279182;33;20293;-74
2022/12/26 16:54:21;;;;;;;;;;;;;;;10.20;100.00;98419.03;4279030;33;20004;-73
2022/12/26 16:56:48;;;;;;;;;;;;;;;10.10;100.00;98429.72;4278218;33;20338;-74
2022/12/26 16:59:23;;;;;;;;;;;;;;;9.98;100.00;98427.25;4280222;33;19961;-74
2022/12/26 17:01:50;;;;;;;;;;;;;;;10.15;100.00;98427.91;4251375;33;19946;-74